Time;durP1;ratioP1;P1;durP2;ratioP2;P2;SDS_P1;SDS_P2;PMS_P1;PMS_P2;Temp;Humidity;BMP_temperature;BMP_pressure;BME280_temperature;BME280_humidity;BME280_pressure;Samples;Min_cycle;Max_cycle;Signal;HPM_P1;HPM_P2
2023/06/08 00:01:07;;;;;;;13.93;6.88;;;10.60;99.90;;;;;;5048683;28;20037;-71
2023/06/08 00:03:33;;;;;;;14.18;6.82;;;10.60;99.90;;;;;;5056562;28;20499;-72
2023/06/08 00:06:00;;;;;;;16.80;7.07;;;10.60;99.90;;;;;;5058560;28;20074;-72
2023/06/08 00:08:26;;;;;;;16.75;7.30;;;10.50;99.90;;;;;;5056884;28;20032;-71
2023/06/08 00:10:51;;;;;;;18.30;7.32;;;10.50;99.90;;;;;;5052298;28;20441;-71
2023/06/08 00:13:17;;;;;;;17.92;8.23;;;10.50;99.90;;;;;;5050250;28;20136;-71
2023/06/08 00:15:43;;;;;;;12.20;7.07;;;10.60;99.90;;;;;;5047194;28;20087;-71
2023/06/08 00:18:09;;;;;;;11.80;7.05;;;10.60;99.90;;;;;;5042608;28;20036;-71
2023/06/08 00:20:35;;;;;;;15.75;6.85;;;10.50;99.90;;;;;;5057880;28;20131;-72
2023/06/08 00:23:04;;;;;;;18.27;6.90;;;10.50;99.90;;;;;;5029047;28;20047;-71
2023/06/08 00:25:31;;;;;;;16.45;6.78;;;10.60;99.90;;;;;;5056393;28;20044;-71
2023/06/08 00:27:56;;;;;;;18.83;6.65;;;10.60;99.90;;;;;;5057873;28;20028;-71
2023/06/08 00:30:22;;;;;;;16.98;7.30;;;10.60;99.90;;;;;;5040620;28;20221;-71
2023/06/08 00:32:48;;;;;;;15.85;6.63;;;10.60;99.90;;;;;;5025175;28;20298;-71
2023/06/08 00:35:14;;;;;;;20.35;7.15;;;10.60;99.90;;;;;;5055402;28;20020;-71
2023/06/08 00:37:40;;;;;;;15.52;6.22;;;10.60;99.90;;;;;;5058134;28;20036;-72
2023/06/08 00:40:07;;;;;;;19.13;6.97;;;10.60;99.90;;;;;;5055954;28;20024;-71
2023/06/08 00:42:33;;;;;;;13.85;6.53;;;10.60;99.90;;;;;;5056488;28;20036;-71
2023/06/08 00:44:58;;;;;;;14.82;6.53;;;10.60;99.90;;;;;;5051662;28;20041;-71
2023/06/08 00:47:25;;;;;;;16.90;6.63;;;10.60;99.90;;;;;;5053014;28;20115;-71
2023/06/08 00:49:51;;;;;;;14.80;6.10;;;10.50;99.90;;;;;;5034982;28;20037;-71
2023/06/08 00:52:20;;;;;;;18.42;7.70;;;10.60;99.90;;;;;;5054956;28;20033;-71
2023/06/08 00:54:48;;;;;;;15.80;6.78;;;10.50;99.90;;;;;;4688795;28;10000068;-72
2023/06/08 00:57:18;;;;;;;13.73;6.65;;;10.60;99.90;;;;;;5026966;28;20646;-71
2023/06/08 00:59:49;;;;;;;13.13;6.10;;;10.50;99.90;;;;;;5042544;28;20487;-72
2023/06/08 01:02:16;;;;;;;17.60;6.40;;;10.60;99.90;;;;;;5033420;28;20411;-71
2023/06/08 01:04:42;;;;;;;18.80;6.30;;;10.60;99.90;;;;;;5037069;28;20574;-71
2023/06/08 01:07:28;;;;;;;12.85;6.20;;;10.60;99.90;;;;;;5043959;28;20032;-71
2023/06/08 01:10:15;;;;;;;15.55;7.00;;;10.50;99.90;;;;;;5046486;28;20032;-71
2023/06/08 01:13:03;;;;;;;14.85;6.82;;;10.50;99.90;;;;;;5058589;28;20064;-71
2023/06/08 01:15:43;;;;;;;13.55;6.40;;;10.50;99.90;;;;;;5058263;28;20025;-71
2023/06/08 01:18:13;;;;;;;15.57;6.70;;;10.50;99.90;;;;;;5059794;28;20067;-72
2023/06/08 01:21:07;;;;;;;15.07;7.35;;;10.50;99.90;;;;;;5054357;28;20052;-71
2023/06/08 01:24:13;;;;;;;19.65;7.28;;;10.40;99.90;;;;;;5052232;28;20108;-71
2023/06/08 01:26:42;;;;;;;15.10;6.55;;;10.40;99.90;;;;;;5046135;28;20040;-72
2023/06/08 01:29:13;;;;;;;18.80;6.72;;;10.40;99.90;;;;;;5039556;28;20279;-72
2023/06/08 01:31:39;;;;;;;17.05;7.10;;;10.40;99.90;;;;;;5055711;28;20024;-71
2023/06/08 01:34:10;;;;;;;13.05;6.97;;;10.40;99.90;;;;;;5049252;28;20032;-71
2023/06/08 01:36:39;;;;;;;18.35;8.32;;;10.40;99.90;;;;;;5017977;28;20511;-71
2023/06/08 01:39:46;;;;;;;21.13;7.70;;;10.40;99.90;;;;;;5042746;28;20474;-72
2023/06/08 01:42:14;;;;;;;14.18;6.85;;;10.50;99.90;;;;;;5042018;28;20052;-71
2023/06/08 01:44:50;;;;;;;17.70;7.15;;;10.50;99.90;;;;;;5051269;28;20080;-71
2023/06/08 01:47:16;;;;;;;12.60;7.22;;;10.40;99.90;;;;;;5053927;28;20024;-71
2023/06/08 01:49:43;;;;;;;14.82;6.80;;;10.50;99.90;;;;;;5043046;28;20272;-72
2023/06/08 01:52:10;;;;;;;14.20;7.05;;;10.40;99.90;;;;;;5049217;28;20033;-71
2023/06/08 01:54:36;;;;;;;18.90;7.03;;;10.50;99.90;;;;;;5053318;28;20043;-71
2023/06/08 01:57:03;;;;;;;16.27;7.30;;;10.40;99.90;;;;;;5051944;28;20024;-71
2023/06/08 01:59:29;;;;;;;14.95;6.75;;;10.40;99.90;;;;;;5029052;28;20143;-71
2023/06/08 02:01:54;;;;;;;16.83;6.70;;;10.30;99.90;;;;;;5033767;28;20120;-71
2023/06/08 02:04:20;;;;;;;13.40;6.57;;;10.40;99.90;;;;;;5056690;28;20123;-71
2023/06/08 02:06:46;;;;;;;15.40;7.72;;;10.40;99.90;;;;;;5046844;28;20128;-72
2023/06/08 02:09:11;;;;;;;14.65;7.57;;;10.40;99.90;;;;;;5053424;28;20089;-72
2023/06/08 02:11:37;;;;;;;15.48;6.72;;;10.30;99.90;;;;;;5035956;28;20045;-71
2023/06/08 02:14:04;;;;;;;13.95;7.43;;;10.30;99.90;;;;;;5048240;28;20029;-72
2023/06/08 02:16:33;;;;;;;17.48;6.88;;;10.40;99.90;;;;;;5039079;28;20071;-71
2023/06/08 02:19:00;;;;;;;11.07;7.25;;;10.40;99.90;;;;;;5047636;28;20078;-71
2023/06/08 02:21:26;;;;;;;14.45;7.10;;;10.30;99.90;;;;;;5047278;28;20406;-71
2023/06/08 02:23:51;;;;;;;13.38;7.05;;;10.30;99.90;;;;;;5051392;28;20127;-71
2023/06/08 02:26:17;;;;;;;13.77;6.43;;;10.30;99.90;;;;;;5034310;28;20134;-71
2023/06/08 02:28:43;;;;;;;15.40;7.30;;;10.30;99.90;;;;;;5024445;28;20041;-72
2023/06/08 02:31:08;;;;;;;11.90;6.53;;;10.40;99.90;;;;;;5036070;28;20397;-71
2023/06/08 02:33:34;;;;;;;12.05;6.78;;;10.40;99.90;;;;;;5054470;28;20031;-71
2023/06/08 02:36:00;;;;;;;18.50;7.22;;;10.40;99.90;;;;;;5048273;28;20024;-71
2023/06/08 02:38:26;;;;;;;14.43;7.15;;;10.40;99.90;;;;;;5036947;28;20060;-71
2023/06/08 02:40:52;;;;;;;13.07;7.80;;;10.30;99.90;;;;;;5044423;28;20365;-71
2023/06/08 02:43:19;;;;;;;20.35;7.93;;;10.40;99.90;;;;;;5032869;28;20028;-71
2023/06/08 02:45:45;;;;;;;15.73;7.82;;;10.50;99.90;;;;;;5057432;28;20043;-71
2023/06/08 02:48:10;;;;;;;15.48;7.45;;;10.50;99.90;;;;;;5048420;28;20024;-71
2023/06/08 02:50:36;;;;;;;16.20;7.75;;;10.50;99.90;;;;;;5048310;28;20033;-72
2023/06/08 02:53:02;;;;;;;13.18;7.18;;;10.50;99.90;;;;;;5048846;28;20028;-71
2023/06/08 02:55:34;;;;;;;16.13;7.47;;;10.50;99.90;;;;;;5037660;28;20150;-71
2023/06/08 02:58:00;;;;;;;13.05;7.43;;;10.50;99.90;;;;;;5051890;28;20032;-71
2023/06/08 03:00:26;;;;;;;14.65;7.70;;;10.50;99.90;;;;;;5037472;28;20071;-71
2023/06/08 03:02:52;;;;;;;14.95;7.32;;;10.50;99.90;;;;;;5038470;28;20134;-71
2023/06/08 03:05:17;;;;;;;13.98;6.97;;;10.50;99.90;;;;;;5056968;28;20097;-72
2023/06/08 03:07:43;;;;;;;14.88;7.43;;;10.50;99.90;;;;;;5057770;28;20028;-71
2023/06/08 03:10:09;;;;;;;17.45;7.75;;;10.50;99.90;;;;;;5038586;28;20540;-71
2023/06/08 03:12:35;;;;;;;16.13;7.80;;;10.50;99.90;;;;;;5034265;28;20116;-70
2023/06/08 03:15:01;;;;;;;11.35;7.55;;;10.50;99.90;;;;;;5056379;28;20036;-71
2023/06/08 03:17:27;;;;;;;17.45;8.05;;;10.50;99.90;;;;;;5053891;28;20048;-71
2023/06/08 03:19:53;;;;;;;13.13;7.55;;;10.50;99.90;;;;;;5035164;28;20116;-72
2023/06/08 03:22:20;;;;;;;17.30;9.05;;;10.60;99.90;;;;;;5039264;28;20048;-71
2023/06/08 03:24:49;;;;;;;16.27;7.75;;;10.60;99.90;;;;;;5041013;28;20115;-71
2023/06/08 03:27:16;;;;;;;18.67;7.60;;;10.60;99.90;;;;;;5053713;28;20116;-71
2023/06/08 03:29:41;;;;;;;17.95;7.38;;;10.60;99.90;;;;;;5057168;28;20245;-73
2023/06/08 03:32:07;;;;;;;15.70;8.15;;;10.70;99.90;;;;;;5051008;28;20221;-70
2023/06/08 03:34:33;;;;;;;13.23;7.20;;;10.70;99.90;;;;;;5038728;28;20037;-71
2023/06/08 03:36:59;;;;;;;14.18;7.40;;;10.80;99.90;;;;;;5025714;28;20420;-71
2023/06/08 03:39:25;;;;;;;17.85;8.00;;;10.80;99.90;;;;;;5026685;28;20021;-71
2023/06/08 03:41:51;;;;;;;19.08;7.68;;;10.70;99.90;;;;;;5044792;28;20519;-71
2023/06/08 03:44:17;;;;;;;16.73;7.30;;;10.80;99.90;;;;;;5058369;28;20071;-71
2023/06/08 03:46:43;;;;;;;19.55;7.40;;;10.80;99.90;;;;;;5037948;28;20036;-71
2023/06/08 03:49:09;;;;;;;15.93;7.05;;;10.80;99.90;;;;;;5031382;28;20108;-71
2023/06/08 03:51:35;;;;;;;14.93;6.80;;;10.80;99.90;;;;;;5040687;28;20033;-70
2023/06/08 03:54:01;;;;;;;15.70;7.05;;;10.80;99.90;;;;;;5045199;28;20048;-71
2023/06/08 03:56:27;;;;;;;13.80;7.22;;;10.90;99.90;;;;;;5043115;28;20071;-71
2023/06/08 03:58:53;;;;;;;15.23;6.47;;;10.90;99.90;;;;;;5056436;28;20036;-71
2023/06/08 04:01:22;;;;;;;14.73;7.15;;;10.90;99.90;;;;;;5058854;28;20028;-71
2023/06/08 04:03:48;;;;;;;13.60;6.50;;;11.00;99.90;;;;;;5040369;28;20142;-71
2023/06/08 04:06:16;;;;;;;10.73;6.45;;;11.00;99.90;;;;;;5066726;28;20246;-71
2023/06/08 04:08:44;;;;;;;17.17;7.65;;;11.10;99.90;;;;;;5052792;28;20102;-71
2023/06/08 04:11:11;;;;;;;14.85;6.60;;;11.20;99.90;;;;;;5051184;28;20031;-71
2023/06/08 04:13:40;;;;;;;17.60;7.47;;;11.20;99.90;;;;;;5054837;28;20149;-71
2023/06/08 04:16:08;;;;;;;23.75;7.43;;;11.10;99.90;;;;;;5052734;28;20498;-71
2023/06/08 04:18:41;;;;;;;13.48;6.97;;;11.10;99.90;;;;;;5027952;28;20128;-71
2023/06/08 04:21:08;;;;;;;12.98;6.50;;;11.20;99.90;;;;;;5045481;28;20485;-71
2023/06/08 04:23:34;;;;;;;12.30;6.82;;;11.20;99.90;;;;;;5057871;28;20040;-71
2023/06/08 04:26:06;;;;;;;14.77;7.45;;;11.20;99.90;;;;;;5056642;28;20144;-70
2023/06/08 04:28:32;;;;;;;12.20;6.88;;;11.30;99.90;;;;;;5049187;28;20042;-70
2023/06/08 04:30:59;;;;;;;11.98;6.35;;;11.40;99.90;;;;;;5043972;28;20028;-71
2023/06/08 04:33:28;;;;;;;13.25;6.63;;;11.50;99.90;;;;;;5045111;28;20032;-71
2023/06/08 04:35:54;;;;;;;13.00;6.22;;;11.60;99.90;;;;;;5054276;28;20027;-71
2023/06/08 04:38:20;;;;;;;12.35;5.72;;;11.60;99.90;;;;;;5046518;28;20116;-71
2023/06/08 04:40:53;;;;;;;16.30;6.38;;;11.70;99.90;;;;;;5054875;28;20131;-70
2023/06/08 04:43:20;;;;;;;12.80;6.43;;;11.70;99.90;;;;;;5034674;28;20115;-70
2023/06/08 04:45:57;;;;;;;14.48;5.45;;;11.80;99.90;;;;;;5053756;28;20126;-70
2023/06/08 04:48:28;;;;;;;13.23;6.22;;;11.90;99.90;;;;;;5048622;28;20540;-73
2023/06/08 04:50:59;;;;;;;16.23;5.82;;;11.90;99.90;;;;;;5043511;28;20488;-72
2023/06/08 04:53:25;;;;;;;13.82;5.57;;;11.90;99.90;;;;;;5046431;28;20040;-73
2023/06/08 04:55:57;;;;;;;15.45;6.07;;;12.00;99.90;;;;;;5046983;28;20062;-72
2023/06/08 04:58:23;;;;;;;17.10;6.22;;;12.10;99.90;;;;;;5048034;28;20027;-72
2023/06/08 05:00:49;;;;;;;17.95;5.57;;;12.20;99.90;;;;;;5058178;28;20055;-72
2023/06/08 05:03:15;;;;;;;10.32;5.40;;;12.20;99.90;;;;;;5056318;28;20024;-72
2023/06/08 05:05:42;;;;;;;11.00;5.20;;;12.20;99.90;;;;;;5035747;28;20119;-72
2023/06/08 05:08:07;;;;;;;14.15;5.45;;;12.30;99.90;;;;;;5038876;28;20039;-72
2023/06/08 05:10:33;;;;;;;15.85;6.03;;;12.40;99.90;;;;;;5052191;28;20033;-73
2023/06/08 05:12:59;;;;;;;8.38;4.88;;;12.40;99.90;;;;;;5053498;28;20192;-72
2023/06/08 05:15:26;;;;;;;12.43;5.20;;;12.30;99.90;;;;;;5052974;28;20107;-72
2023/06/08 05:17:52;;;;;;;13.30;5.10;;;12.30;99.90;;;;;;5038436;28;20049;-72
2023/06/08 05:20:19;;;;;;;12.25;5.28;;;12.40;99.90;;;;;;5043488;28;20115;-73
2023/06/08 05:22:45;;;;;;;11.00;4.20;;;12.30;99.90;;;;;;5038074;28;20031;-73
2023/06/08 05:25:10;;;;;;;7.78;4.72;;;12.40;99.90;;;;;;5040931;28;20046;-72
2023/06/08 05:27:37;;;;;;;10.88;4.55;;;12.50;99.90;;;;;;5051803;28;20073;-72
2023/06/08 05:30:03;;;;;;;11.95;5.40;;;12.50;99.90;;;;;;5041768;28;20181;-72
2023/06/08 05:32:29;;;;;;;11.85;4.43;;;12.60;99.90;;;;;;5044362;28;20439;-72
2023/06/08 05:34:55;;;;;;;8.07;4.50;;;12.70;99.90;;;;;;5055190;28;20197;-73
2023/06/08 05:37:20;;;;;;;15.57;4.88;;;12.80;99.90;;;;;;5050533;28;20096;-72
2023/06/08 05:39:46;;;;;;;13.38;4.78;;;12.90;99.90;;;;;;5036531;28;20045;-73
2023/06/08 05:42:12;;;;;;;10.20;4.53;;;12.80;99.90;;;;;;5034726;28;20025;-72
2023/06/08 05:44:37;;;;;;;11.27;4.57;;;12.80;99.90;;;;;;5026123;28;20093;-73
2023/06/08 05:47:03;;;;;;;8.40;4.38;;;12.90;99.90;;;;;;5054573;28;20128;-73
2023/06/08 05:49:29;;;;;;;10.40;4.97;;;12.90;99.90;;;;;;5057162;28;20036;-72
2023/06/08 05:51:55;;;;;;;12.82;4.88;;;12.90;99.90;;;;;;5050676;28;20024;-72
2023/06/08 05:54:20;;;;;;;8.45;4.53;;;12.90;99.90;;;;;;5038573;28;20051;-72
2023/06/08 05:56:46;;;;;;;10.32;4.55;;;12.90;99.90;;;;;;5041102;28;20675;-73
2023/06/08 05:59:11;;;;;;;8.75;4.60;;;12.90;99.90;;;;;;5031549;28;20028;-73
2023/06/08 06:01:37;;;;;;;11.98;4.53;;;13.00;99.90;;;;;;5050990;28;20104;-73
2023/06/08 06:04:03;;;;;;;12.55;5.40;;;13.10;99.90;;;;;;5054256;28;20060;-72
2023/06/08 06:06:30;;;;;;;9.98;4.45;;;13.00;99.90;;;;;;5057078;28;20056;-73
2023/06/08 06:08:55;;;;;;;11.65;5.30;;;13.00;99.90;;;;;;5029001;28;20036;-72
2023/06/08 06:11:22;;;;;;;12.48;4.97;;;13.10;99.90;;;;;;5035377;28;21238;-72
2023/06/08 06:13:47;;;;;;;12.35;4.80;;;13.00;99.90;;;;;;5033428;28;20028;-72
2023/06/08 06:16:13;;;;;;;7.35;4.70;;;13.10;99.90;;;;;;5055456;28;20153;-72
2023/06/08 06:18:39;;;;;;;8.90;5.25;;;13.20;99.90;;;;;;5053739;28;20035;-72
2023/06/08 06:21:04;;;;;;;12.82;4.93;;;13.10;99.90;;;;;;5057482;28;20106;-72
2023/06/08 06:23:30;;;;;;;10.75;4.68;;;13.10;99.90;;;;;;5050748;28;20033;-73
2023/06/08 06:25:56;;;;;;;17.60;8.70;;;13.20;99.90;;;;;;5050017;28;20032;-73
2023/06/08 06:28:21;;;;;;;11.80;5.25;;;13.30;99.90;;;;;;5042984;28;20151;-72
2023/06/08 06:30:47;;;;;;;11.48;4.88;;;13.30;99.90;;;;;;5057433;28;20422;-72
2023/06/08 06:33:12;;;;;;;11.45;4.40;;;13.40;99.90;;;;;;5031483;28;20387;-73
2023/06/08 06:35:38;;;;;;;9.52;4.43;;;13.50;99.90;;;;;;5046498;28;20029;-72
2023/06/08 06:38:04;;;;;;;10.25;4.40;;;13.70;99.90;;;;;;5054588;28;20033;-72
2023/06/08 06:40:29;;;;;;;13.57;4.20;;;13.70;99.90;;;;;;5034315;28;20047;-72
2023/06/08 06:42:55;;;;;;;8.95;4.45;;;13.70;99.90;;;;;;5055123;28;20788;-72
2023/06/08 06:45:21;;;;;;;11.02;4.60;;;13.80;99.90;;;;;;4699704;28;9999620;-73
2023/06/08 06:47:46;;;;;;;9.93;4.03;;;13.90;99.90;;;;;;5041454;28;20036;-72
2023/06/08 06:50:12;;;;;;;11.90;4.75;;;14.00;99.90;;;;;;5038194;28;20040;-72
2023/06/08 06:52:38;;;;;;;11.73;4.35;;;14.10;99.90;;;;;;5037975;28;20039;-72
2023/06/08 06:55:04;;;;;;;12.15;4.53;;;14.10;99.90;;;;;;5052378;28;20264;-72
2023/06/08 06:57:31;;;;;;;7.97;3.95;;;14.20;99.90;;;;;;5051727;28;20484;-73
2023/06/08 06:59:58;;;;;;;20.80;8.93;;;14.30;99.90;;;;;;5042527;28;20491;-72
2023/06/08 07:02:25;;;;;;;10.57;5.00;;;14.40;99.90;;;;;;5051107;28;20044;-72
2023/06/08 07:04:54;;;;;;;10.85;4.05;;;14.50;99.90;;;;;;5046509;28;20671;-73
2023/06/08 07:07:20;;;;;;;15.80;3.95;;;14.60;99.90;;;;;;5033618;28;20072;-72
2023/06/08 07:09:45;;;;;;;10.65;3.75;;;14.60;99.90;;;;;;5041949;28;20064;-72
2023/06/08 07:12:11;;;;;;;8.35;3.67;;;14.70;99.90;;;;;;5043045;28;20025;-73
2023/06/08 07:14:36;;;;;;;10.40;3.95;;;14.80;99.90;;;;;;5048558;28;20031;-72
2023/06/08 07:17:02;;;;;;;10.48;4.20;;;14.80;99.90;;;;;;5049818;28;20423;-72
2023/06/08 07:19:28;;;;;;;11.02;4.07;;;14.90;99.90;;;;;;5037822;28;20654;-73
2023/06/08 07:21:54;;;;;;;8.90;3.53;;;15.20;99.90;;;;;;5041817;28;20256;-72
2023/06/08 07:24:20;;;;;;;10.73;4.22;;;15.30;99.90;;;;;;5032161;28;20085;-72
2023/06/08 07:26:46;;;;;;;7.65;3.83;;;15.50;99.90;;;;;;5027534;28;20158;-73
2023/06/08 07:29:13;;;;;;;11.18;3.40;;;16.00;99.90;;;;;;5042330;28;20487;-72
2023/06/08 07:31:39;;;;;;;8.70;3.10;;;17.70;99.90;;;;;;5024735;28;20021;-72
2023/06/08 07:34:06;;;;;;;8.63;2.88;;;19.80;97.40;;;;;;5045988;28;20037;-73
2023/06/08 07:36:35;;;;;;;9.52;2.85;;;22.40;91.00;;;;;;5038532;28;20055;-72
2023/06/08 07:39:02;;;;;;;7.47;2.90;;;23.50;81.40;;;;;;5053254;28;20392;-73
2023/06/08 07:41:27;;;;;;;7.75;2.60;;;25.00;78.40;;;;;;5043193;28;20033;-73
2023/06/08 07:43:53;;;;;;;8.73;2.70;;;26.50;68.10;;;;;;5054346;28;20077;-74
2023/06/08 07:46:19;;;;;;;7.78;2.70;;;26.80;60.40;;;;;;5052399;28;20626;-73
2023/06/08 07:48:45;;;;;;;5.55;2.28;;;27.90;57.30;;;;;;5036762;28;20032;-73
2023/06/08 07:51:10;;;;;;;7.00;2.45;;;27.90;55.20;;;;;;5055251;28;20442;-72
2023/06/08 07:53:37;;;;;;;5.72;2.20;;;28.90;54.60;;;;;;5050000;28;20025;-73
2023/06/08 07:56:03;;;;;;;8.68;2.58;;;29.50;50.20;;;;;;5045488;28;20031;-71
2023/06/08 07:58:30;;;;;;;5.55;2.20;;;29.50;50.30;;;;;;5033250;28;20115;-71
2023/06/08 08:00:56;;;;;;;8.27;2.40;;;29.80;50.60;;;;;;5050159;28;20105;-71
2023/06/08 08:03:21;;;;;;;6.70;2.28;;;29.70;49.10;;;;;;5049203;28;20033;-73
2023/06/08 08:05:49;;;;;;;5.05;2.10;;;30.10;47.80;;;;;;5051011;28;20040;-76
2023/06/08 08:08:15;;;;;;;6.10;2.40;;;30.30;45.50;;;;;;5051101;28;20043;-72
2023/06/08 08:10:41;;;;;;;5.03;2.00;;;30.90;45.20;;;;;;5046293;28;20094;-72
2023/06/08 08:13:07;;;;;;;6.93;2.42;;;31.40;43.90;;;;;;5054267;28;20024;-72
2023/06/08 08:15:33;;;;;;;8.70;2.53;;;32.50;43.70;;;;;;5052527;28;20055;-72
2023/06/08 08:17:59;;;;;;;5.35;2.03;;;33.00;41.20;;;;;;5049951;28;20020;-76
2023/06/08 08:20:24;;;;;;;6.60;2.00;;;33.10;40.20;;;;;;5046740;28;20137;-73
2023/06/08 08:22:50;;;;;;;6.90;2.30;;;33.30;40.90;;;;;;5050568;28;21228;-73
2023/06/08 08:25:16;;;;;;;6.07;2.08;;;32.80;39.60;;;;;;5051245;28;20062;-74
2023/06/08 08:27:41;;;;;;;6.53;1.92;;;33.00;39.30;;;;;;5050995;28;20119;-74
2023/06/08 08:30:08;;;;;;;6.38;2.05;;;33.60;39.80;;;;;;5052158;28;20048;-74
2023/06/08 08:32:34;;;;;;;9.38;2.38;;;32.90;38.10;;;;;;5050368;28;20075;-73
2023/06/08 08:35:01;;;;;;;6.28;2.20;;;31.90;38.40;;;;;;5050323;28;20142;-74
2023/06/08 08:37:26;;;;;;;10.50;2.53;;;32.70;41.50;;;;;;5052111;28;20236;-79
2023/06/08 08:39:52;;;;;;;4.95;2.38;;;32.00;37.70;;;;;;5050580;28;20263;-75
2023/06/08 08:42:31;;;;;;;6.28;2.33;;;32.20;38.60;;;;;;5024212;28;20029;-76
2023/06/08 08:45:00;;;;;;;7.43;2.20;;;32.10;39.00;;;;;;5042923;28;20221;-75
2023/06/08 08:47:29;;;;;;;7.18;2.50;;;31.20;39.00;;;;;;5049003;28;20453;-75
2023/06/08 08:50:06;;;;;;;7.45;2.40;;;32.00;40.40;;;;;;5043500;28;20442;-77
2023/06/08 08:52:37;;;;;;;7.80;2.38;;;32.60;39.10;;;;;;5042156;28;20487;-75
2023/06/08 08:55:06;;;;;;;9.32;2.38;;;33.80;39.30;;;;;;5049684;28;20136;-73
2023/06/08 08:57:32;;;;;;;7.60;2.50;;;35.20;38.40;;;;;;5044193;28;20214;-80
2023/06/08 08:59:58;;;;;;;7.32;2.65;;;36.00;34.40;;;;;;5049045;28;20813;-74
2023/06/08 09:02:25;;;;;;;9.23;2.63;;;34.90;32.90;;;;;;5047481;28;20353;-79
2023/06/08 09:04:56;;;;;;;8.23;2.47;;;33.70;35.20;;;;;;5050007;28;20037;-78
2023/06/08 09:07:24;;;;;;;8.48;2.65;;;34.10;35.20;;;;;;5048562;28;20108;-76
2023/06/08 09:10:12;;;;;;;8.45;2.30;;;33.20;35.00;;;;;;5047918;28;20035;-74
2023/06/08 09:12:43;;;;;;;8.25;2.33;;;33.90;37.70;;;;;;5047184;28;20025;-72
2023/06/08 09:15:11;;;;;;;8.00;2.35;;;34.40;33.90;;;;;;5040690;28;20036;-72
2023/06/08 09:17:38;;;;;;;7.47;2.83;;;34.20;33.10;;;;;;5021181;28;20052;-73
2023/06/08 09:20:08;;;;;;;8.50;2.40;;;34.20;34.20;;;;;;5044476;28;20052;-76
2023/06/08 09:22:37;;;;;;;6.63;2.22;;;33.80;35.40;;;;;;5025786;28;20040;-74
2023/06/08 09:25:07;;;;;;;7.82;2.20;;;35.20;35.70;;;;;;5043214;28;20035;-77
2023/06/08 09:27:33;;;;;;;11.50;2.05;;;36.90;35.10;;;;;;5043468;28;20132;-74
2023/06/08 09:30:02;;;;;;;6.03;2.33;;;37.10;31.50;;;;;;5047310;28;20027;-75
2023/06/08 09:32:37;;;;;;;6.53;2.13;;;35.80;31.80;;;;;;5047130;28;20028;-73
2023/06/08 09:35:03;;;;;;;9.68;2.80;;;35.40;32.40;;;;;;5039548;28;20025;-74
2023/06/08 09:37:32;;;;;;;4.60;2.07;;;33.90;33.30;;;;;;4694601;28;10000472;-77
2023/06/08 09:39:59;;;;;;;9.35;2.60;;;34.10;36.10;;;;;;5046327;28;20416;-73
2023/06/08 09:42:42;;;;;;;5.25;2.25;;;34.50;34.90;;;;;;5043124;28;20047;-72
2023/06/08 09:45:13;;;;;;;9.23;2.50;;;35.30;33.20;;;;;;5017844;28;20036;-72
2023/06/08 09:47:40;;;;;;;8.07;2.60;;;35.90;34.10;;;;;;5032900;28;20117;-73
2023/06/08 09:50:08;;;;;;;10.15;2.75;;;36.20;32.20;;;;;;5033287;28;20024;-71
2023/06/08 09:52:37;;;;;;;5.75;2.55;;;35.50;31.70;;;;;;5030226;28;20460;-69
2023/06/08 09:55:05;;;;;;;8.88;2.40;;;35.20;34.10;;;;;;5024564;28;20551;-71
2023/06/08 09:57:35;;;;;;;9.70;2.20;;;35.10;33.80;;;;;;5051152;28;20028;-71
2023/06/08 10:00:17;;;;;;;7.38;2.47;;;35.10;34.00;;;;;;5048643;28;20550;-71
2023/06/08 10:02:53;;;;;;;6.32;2.20;;;35.10;33.10;;;;;;5046656;28;20024;-71
2023/06/08 10:05:22;;;;;;;8.43;2.10;;;35.40;34.30;;;;;;5038756;28;20047;-72
2023/06/08 10:07:51;;;;;;;8.27;2.30;;;36.70;32.80;;;;;;5045633;28;20029;-72
2023/06/08 10:10:22;;;;;;;9.43;2.63;;;34.50;32.80;;;;;;5045964;28;20545;-72
2023/06/08 10:12:48;;;;;;;5.35;2.05;;;34.50;34.00;;;;;;5051944;28;20507;-72
2023/06/08 10:15:15;;;;;;;7.18;2.60;;;35.30;33.40;;;;;;5048857;28;20036;-72
2023/06/08 10:17:42;;;;;;;7.80;2.42;;;34.90;36.50;;;;;;5042460;28;20109;-72
2023/06/08 10:20:12;;;;;;;5.88;2.30;;;35.50;34.70;;;;;;5042404;28;20451;-72
2023/06/08 10:22:39;;;;;;;4.63;2.10;;;33.80;32.90;;;;;;5044441;28;20025;-75
2023/06/08 10:25:06;;;;;;;7.13;2.45;;;33.80;37.90;;;;;;5021031;28;20051;-72
2023/06/08 10:27:35;;;;;;;5.18;1.95;;;34.70;33.00;;;;;;5041906;28;20065;-72
2023/06/08 10:30:03;;;;;;;7.05;2.38;;;35.50;36.10;;;;;;5048569;28;20484;-72
2023/06/08 10:32:31;;;;;;;7.28;2.40;;;34.40;33.40;;;;;;5049950;28;20020;-72
2023/06/08 10:34:58;;;;;;;5.93;2.35;;;35.70;33.30;;;;;;5048441;28;20074;-72
2023/06/08 10:37:31;;;;;;;5.28;1.90;;;36.50;32.80;;;;;;5039460;28;20103;-72
2023/06/08 10:39:58;;;;;;;5.97;2.33;;;37.30;33.30;;;;;;5049045;28;21935;-72
2023/06/08 10:42:24;;;;;;;5.85;2.10;;;37.40;31.40;;;;;;5048427;28;20393;-70
2023/06/08 10:44:55;;;;;;;6.20;2.05;;;37.50;30.50;;;;;;5023125;28;20051;-71
2023/06/08 10:47:20;;;;;;;6.10;2.08;;;37.00;33.10;;;;;;5034084;28;20036;-71
2023/06/08 10:49:55;;;;;;;6.45;2.25;;;37.20;30.00;;;;;;5032780;28;20041;-71
2023/06/08 10:52:22;;;;;;;9.68;2.42;;;37.20;29.10;;;;;;5033137;28;20053;-71
2023/06/08 10:55:05;;;;;;;6.55;2.45;;;36.40;30.80;;;;;;5047212;28;20036;-71
2023/06/08 10:57:36;;;;;;;7.50;2.22;;;35.80;35.10;;;;;;5042782;28;20025;-71
2023/06/08 11:00:26;;;;;;;8.52;2.50;;;35.70;32.70;;;;;;5046703;28;20345;-71
2023/06/08 11:02:56;;;;;;;6.68;2.30;;;35.00;32.20;;;;;;5049460;28;20579;-71
2023/06/08 11:05:23;;;;;;;;;;;35.60;32.90;;;;;;5051877;28;20604;-70
2023/06/08 11:07:49;;;;;;;7.82;2.30;;;35.40;33.40;;;;;;5040009;28;20327;-71
2023/06/08 11:10:15;;;;;;;6.35;2.00;;;35.90;35.00;;;;;;5032778;28;20079;-72
2023/06/08 11:12:41;;;;;;;8.93;2.22;;;35.10;31.90;;;;;;5023919;28;20560;-71
2023/06/08 11:15:07;;;;;;;6.45;2.10;;;35.20;33.90;;;;;;5019641;28;20055;-71
2023/06/08 11:17:43;;;;;;;9.27;2.35;;;33.90;32.90;;;;;;5036225;28;20045;-71
2023/06/08 11:20:10;;;;;;;6.60;2.50;;;34.40;34.10;;;;;;5032187;28;20496;-71
2023/06/08 11:22:39;;;;;;;7.22;2.55;;;34.90;34.30;;;;;;5033183;28;20125;-71
2023/06/08 11:25:08;;;;;;;10.68;2.60;;;34.70;35.00;;;;;;5043807;28;20029;-71
2023/06/08 11:27:43;;;;;;;7.95;2.47;;;32.60;33.70;;;;;;5049595;28;20701;-71
2023/06/08 11:30:09;;;;;;;4.93;2.35;;;31.80;35.80;;;;;;5037535;28;20039;-71
2023/06/08 11:32:39;;;;;;;6.70;2.67;;;31.40;40.40;;;;;;5045400;28;20024;-71
2023/06/08 11:35:05;;;;;;;6.97;2.85;;;29.30;41.50;;;;;;5050056;28;20422;-71
2023/06/08 11:37:35;;;;;;;7.55;2.80;;;29.00;43.00;;;;;;5062483;28;20163;-71
2023/06/08 11:40:07;;;;;;;6.25;2.65;;;28.30;44.00;;;;;;5049466;28;20032;-71
2023/06/08 11:42:37;;;;;;;7.40;2.58;;;27.90;45.00;;;;;;5046894;28;20082;-71
2023/06/08 11:45:04;;;;;;;9.55;2.80;;;27.60;50.00;;;;;;5046852;28;20040;-71
2023/06/08 11:47:31;;;;;;;9.32;2.70;;;27.10;50.90;;;;;;5047417;28;20739;-71
2023/06/08 11:49:59;;;;;;;6.72;2.83;;;26.10;48.50;;;;;;5031410;28;20048;-71
2023/06/08 11:52:25;;;;;;;9.35;2.33;;;25.70;52.70;;;;;;5039965;28;20080;-71
2023/06/08 11:54:53;;;;;;;8.60;2.50;;;25.60;54.40;;;;;;5051325;28;20131;-71
2023/06/08 11:57:19;;;;;;;8.45;2.42;;;25.60;56.20;;;;;;5049979;28;20036;-71
2023/06/08 11:59:45;;;;;;;5.25;2.50;;;25.60;55.50;;;;;;5038069;28;20101;-71
2023/06/08 12:02:12;;;;;;;5.97;2.40;;;25.90;61.60;;;;;;5052235;28;20025;-71
2023/06/08 12:04:37;;;;;;;12.13;2.72;;;26.40;61.70;;;;;;5044330;28;20346;-71
2023/06/08 12:07:10;;;;;;;9.38;2.90;;;26.60;59.00;;;;;;5046731;28;20020;-71
2023/06/08 12:09:37;;;;;;;8.88;2.60;;;26.80;58.90;;;;;;5056054;28;20031;-71
2023/06/08 12:12:10;;;;;;;8.70;2.60;;;26.60;57.40;;;;;;5050510;28;20482;-70
2023/06/08 12:14:42;;;;;;;6.75;2.30;;;25.80;53.70;;;;;;5036182;28;20105;-71
2023/06/08 12:17:08;;;;;;;7.57;2.50;;;25.70;58.90;;;;;;5057137;28;20040;-72
2023/06/08 12:19:34;;;;;;;7.88;2.60;;;25.70;58.20;;;;;;5056990;28;20349;-71
2023/06/08 12:21:59;;;;;;;7.55;2.55;;;26.00;60.80;;;;;;5031314;28;20404;-71
2023/06/08 12:24:25;;;;;;;10.73;2.67;;;25.90;56.10;;;;;;5052361;28;20041;-71
2023/06/08 12:26:51;;;;;;;5.80;2.60;;;25.80;56.20;;;;;;5015967;28;20342;-71
2023/06/08 12:29:18;;;;;;;8.50;2.63;;;25.80;57.40;;;;;;5050853;28;20036;-71
2023/06/08 12:31:43;;;;;;;5.78;2.38;;;25.80;60.00;;;;;;5047526;28;20028;-70
2023/06/08 12:34:09;;;;;;;7.82;2.80;;;25.50;60.60;;;;;;5026647;28;20078;-71
2023/06/08 12:36:35;;;;;;;9.48;2.50;;;25.50;66.50;;;;;;5029864;28;20035;-71
2023/06/08 12:39:00;;;;;;;8.30;2.55;;;25.70;60.40;;;;;;5044036;28;20396;-70
2023/06/08 12:41:26;;;;;;;7.50;2.40;;;25.10;60.70;;;;;;5026782;28;20077;-71
2023/06/08 12:43:52;;;;;;;5.70;2.60;;;26.00;75.10;;;;;;5042912;28;20024;-71